sensor_id;sensor_type;location;lat;lon;timestamp;temperature;humidity
582;DHT22;277;50.074;8.436;2023-05-09T00:00:09;16.10;99.90
582;DHT22;277;50.074;8.436;2023-05-09T00:02:38;16.10;99.90
582;DHT22;277;50.074;8.436;2023-05-09T00:05:07;16.10;99.90
582;DHT22;277;50.074;8.436;2023-05-09T00:07:35;16.00;99.90
582;DHT22;277;50.074;8.436;2023-05-09T00:10:04;15.90;99.90
582;DHT22;277;50.074;8.436;2023-05-09T00:12:32;15.90;99.90
582;DHT22;277;50.074;8.436;2023-05-09T00:15:01;15.90;99.90
582;DHT22;277;50.074;8.436;2023-05-09T00:17:30;15.90;99.90
582;DHT22;277;50.074;8.436;2023-05-09T00:19:57;15.90;99.90
582;DHT22;277;50.074;8.436;2023-05-09T00:22:27;16.00;99.90
582;DHT22;277;50.074;8.436;2023-05-09T00:24:55;15.90;99.90
582;DHT22;277;50.074;8.436;2023-05-09T00:27:22;15.90;99.90
582;DHT22;277;50.074;8.436;2023-05-09T00:29:50;15.90;99.90
582;DHT22;277;50.074;8.436;2023-05-09T00:32:20;15.90;99.90
582;DHT22;277;50.074;8.436;2023-05-09T00:34:47;15.90;99.90
582;DHT22;277;50.074;8.436;2023-05-09T00:37:15;16.00;99.90
582;DHT22;277;50.074;8.436;2023-05-09T00:39:44;16.00;99.90
582;DHT22;277;50.074;8.436;2023-05-09T00:42:12;16.10;99.90
582;DHT22;277;50.074;8.436;2023-05-09T00:44:40;16.10;99.90
582;DHT22;277;50.074;8.436;2023-05-09T00:47:08;16.20;99.90
582;DHT22;277;50.074;8.436;2023-05-09T00:49:37;16.10;99.90
582;DHT22;277;50.074;8.436;2023-05-09T00:52:05;16.00;99.90
582;DHT22;277;50.074;8.436;2023-05-09T00:54:33;16.00;99.90
582;DHT22;277;50.074;8.436;2023-05-09T00:57:01;15.90;99.90
582;DHT22;277;50.074;8.436;2023-05-09T00:59:29;15.90;99.90
582;DHT22;277;50.074;8.436;2023-05-09T01:01:57;15.90;99.90
582;DHT22;277;50.074;8.436;2023-05-09T01:04:25;15.80;99.90
582;DHT22;277;50.074;8.436;2023-05-09T01:07:02;15.80;99.90
582;DHT22;277;50.074;8.436;2023-05-09T01:09:37;15.80;99.90
582;DHT22;277;50.074;8.436;2023-05-09T01:12:12;15.70;99.90
582;DHT22;277;50.074;8.436;2023-05-09T01:14:45;15.60;99.90
582;DHT22;277;50.074;8.436;2023-05-09T01:17:22;15.70;99.90
582;DHT22;277;50.074;8.436;2023-05-09T01:19:58;15.80;99.90
582;DHT22;277;50.074;8.436;2023-05-09T01:22:30;15.90;99.90
582;DHT22;277;50.074;8.436;2023-05-09T01:25:19;15.90;99.90
582;DHT22;277;50.074;8.436;2023-05-09T01:27:57;15.90;99.90
582;DHT22;277;50.074;8.436;2023-05-09T01:30:33;15.90;99.90
582;DHT22;277;50.074;8.436;2023-05-09T01:33:06;15.90;99.90
582;DHT22;277;50.074;8.436;2023-05-09T01:35:36;15.90;99.90
582;DHT22;277;50.074;8.436;2023-05-09T01:38:17;15.90;99.90
582;DHT22;277;50.074;8.436;2023-05-09T01:40:48;16.00;99.90
582;DHT22;277;50.074;8.436;2023-05-09T01:43:19;16.00;99.90
582;DHT22;277;50.074;8.436;2023-05-09T01:45:50;16.00;99.90
582;DHT22;277;50.074;8.436;2023-05-09T01:48:19;15.90;99.90
582;DHT22;277;50.074;8.436;2023-05-09T01:50:52;16.00;99.90
582;DHT22;277;50.074;8.436;2023-05-09T01:53:21;15.90;99.90
582;DHT22;277;50.074;8.436;2023-05-09T01:55:51;16.00;99.90
582;DHT22;277;50.074;8.436;2023-05-09T01:58:21;16.00;99.90
582;DHT22;277;50.074;8.436;2023-05-09T02:00:52;16.00;99.90
582;DHT22;277;50.074;8.436;2023-05-09T02:03:20;16.10;99.90
582;DHT22;277;50.074;8.436;2023-05-09T02:05:49;16.10;99.90
582;DHT22;277;50.074;8.436;2023-05-09T02:08:18;16.10;99.90
582;DHT22;277;50.074;8.436;2023-05-09T02:10:47;16.00;99.90
582;DHT22;277;50.074;8.436;2023-05-09T02:13:16;15.90;99.90
582;DHT22;277;50.074;8.436;2023-05-09T02:15:44;15.90;99.90
582;DHT22;277;50.074;8.436;2023-05-09T02:18:13;15.90;99.90
582;DHT22;277;50.074;8.436;2023-05-09T02:20:42;15.70;99.90
582;DHT22;277;50.074;8.436;2023-05-09T02:23:10;15.70;99.90
582;DHT22;277;50.074;8.436;2023-05-09T02:25:39;15.70;99.90
582;DHT22;277;50.074;8.436;2023-05-09T02:28:07;15.70;99.90
582;DHT22;277;50.074;8.436;2023-05-09T02:30:39;15.70;99.90
582;DHT22;277;50.074;8.436;2023-05-09T02:33:10;15.70;99.90
582;DHT22;277;50.074;8.436;2023-05-09T02:35:41;15.70;99.90
582;DHT22;277;50.074;8.436;2023-05-09T02:38:09;15.70;99.90
582;DHT22;277;50.074;8.436;2023-05-09T02:40:38;15.70;99.90
582;DHT22;277;50.074;8.436;2023-05-09T02:43:09;15.70;99.90
582;DHT22;277;50.074;8.436;2023-05-09T02:45:36;15.70;99.90
582;DHT22;277;50.074;8.436;2023-05-09T02:48:05;15.70;99.90
582;DHT22;277;50.074;8.436;2023-05-09T02:50:35;15.70;99.90
582;DHT22;277;50.074;8.436;2023-05-09T02:53:05;15.70;99.90
582;DHT22;277;50.074;8.436;2023-05-09T02:55:33;15.70;99.90
582;DHT22;277;50.074;8.436;2023-05-09T02:58:01;15.70;99.90
582;DHT22;277;50.074;8.436;2023-05-09T03:00:41;15.70;99.90
582;DHT22;277;50.074;8.436;2023-05-09T03:03:09;15.70;99.90
582;DHT22;277;50.074;8.436;2023-05-09T03:05:37;15.70;99.90
582;DHT22;277;50.074;8.436;2023-05-09T03:08:06;15.80;99.90
582;DHT22;277;50.074;8.436;2023-05-09T03:10:34;15.70;99.90
582;DHT22;277;50.074;8.436;2023-05-09T03:13:02;15.80;99.90
582;DHT22;277;50.074;8.436;2023-05-09T03:15:30;15.80;99.90
582;DHT22;277;50.074;8.436;2023-05-09T03:17:58;15.90;99.90
582;DHT22;277;50.074;8.436;2023-05-09T03:20:26;15.90;99.90
582;DHT22;277;50.074;8.436;2023-05-09T03:22:53;15.90;99.90
582;DHT22;277;50.074;8.436;2023-05-09T03:25:23;15.80;99.90
582;DHT22;277;50.074;8.436;2023-05-09T03:27:52;15.80;99.90
582;DHT22;277;50.074;8.436;2023-05-09T03:30:19;15.70;99.90
582;DHT22;277;50.074;8.436;2023-05-09T03:32:47;15.70;99.90
582;DHT22;277;50.074;8.436;2023-05-09T03:35:15;15.70;99.90
582;DHT22;277;50.074;8.436;2023-05-09T03:37:43;15.70;99.90
582;DHT22;277;50.074;8.436;2023-05-09T03:40:11;15.60;99.90
582;DHT22;277;50.074;8.436;2023-05-09T03:42:41;15.60;99.90
582;DHT22;277;50.074;8.436;2023-05-09T03:45:09;15.50;99.90
582;DHT22;277;50.074;8.436;2023-05-09T03:47:38;15.60;99.90
582;DHT22;277;50.074;8.436;2023-05-09T03:50:07;15.50;99.90
582;DHT22;277;50.074;8.436;2023-05-09T03:52:35;15.60;99.90
582;DHT22;277;50.074;8.436;2023-05-09T03:55:03;15.60;99.90
582;DHT22;277;50.074;8.436;2023-05-09T03:57:33;15.60;99.90
582;DHT22;277;50.074;8.436;2023-05-09T04:00:03;15.50;99.90
582;DHT22;277;50.074;8.436;2023-05-09T04:02:32;15.50;99.90
582;DHT22;277;50.074;8.436;2023-05-09T04:05:00;15.60;99.90
582;DHT22;277;50.074;8.436;2023-05-09T04:07:28;15.60;99.90
582;DHT22;277;50.074;8.436;2023-05-09T04:09:56;15.60;99.90
582;DHT22;277;50.074;8.436;2023-05-09T04:12:24;15.60;99.90
582;DHT22;277;50.074;8.436;2023-05-09T04:14:52;15.60;99.90
582;DHT22;277;50.074;8.436;2023-05-09T04:17:21;15.50;99.90
582;DHT22;277;50.074;8.436;2023-05-09T04:19:49;15.60;99.90
582;DHT22;277;50.074;8.436;2023-05-09T04:22:17;15.50;99.90
582;DHT22;277;50.074;8.436;2023-05-09T04:24:45;15.70;99.90
582;DHT22;277;50.074;8.436;2023-05-09T04:27:13;15.80;99.90
582;DHT22;277;50.074;8.436;2023-05-09T04:29:41;15.80;99.90
582;DHT22;277;50.074;8.436;2023-05-09T04:32:09;15.80;99.90
582;DHT22;277;50.074;8.436;2023-05-09T04:34:38;15.80;99.90
582;DHT22;277;50.074;8.436;2023-05-09T04:37:06;15.80;99.90
582;DHT22;277;50.074;8.436;2023-05-09T04:39:34;15.90;99.90
582;DHT22;277;50.074;8.436;2023-05-09T04:42:02;15.70;99.90
582;DHT22;277;50.074;8.436;2023-05-09T04:44:30;15.60;99.90
582;DHT22;277;50.074;8.436;2023-05-09T04:46:58;15.50;99.90
582;DHT22;277;50.074;8.436;2023-05-09T04:49:26;15.60;99.90
582;DHT22;277;50.074;8.436;2023-05-09T04:51:55;15.70;99.90
582;DHT22;277;50.074;8.436;2023-05-09T04:54:23;15.70;99.90
582;DHT22;277;50.074;8.436;2023-05-09T04:56:51;15.70;99.90
582;DHT22;277;50.074;8.436;2023-05-09T04:59:32;15.60;99.90
582;DHT22;277;50.074;8.436;2023-05-09T05:02:00;15.70;99.90
582;DHT22;277;50.074;8.436;2023-05-09T05:04:28;15.70;99.90
582;DHT22;277;50.074;8.436;2023-05-09T05:06:58;15.80;99.90
582;DHT22;277;50.074;8.436;2023-05-09T05:09:26;15.80;99.90
582;DHT22;277;50.074;8.436;2023-05-09T05:11:54;15.80;99.90
582;DHT22;277;50.074;8.436;2023-05-09T05:14:28;15.80;99.90
582;DHT22;277;50.074;8.436;2023-05-09T05:16:56;15.80;99.90
582;DHT22;277;50.074;8.436;2023-05-09T05:19:23;15.90;99.90
582;DHT22;277;50.074;8.436;2023-05-09T05:21:51;15.90;99.90
582;DHT22;277;50.074;8.436;2023-05-09T05:24:20;16.00;99.90
582;DHT22;277;50.074;8.436;2023-05-09T05:26:48;16.00;99.90
582;DHT22;277;50.074;8.436;2023-05-09T05:29:16;15.90;99.90
582;DHT22;277;50.074;8.436;2023-05-09T05:31:44;16.00;99.90
582;DHT22;277;50.074;8.436;2023-05-09T05:34:12;16.00;99.90
582;DHT22;277;50.074;8.436;2023-05-09T05:36:42;16.00;99.90
582;DHT22;277;50.074;8.436;2023-05-09T05:39:10;16.10;99.90
582;DHT22;277;50.074;8.436;2023-05-09T05:41:39;16.10;99.90
582;DHT22;277;50.074;8.436;2023-05-09T05:44:07;16.20;99.90
582;DHT22;277;50.074;8.436;2023-05-09T05:46:35;16.20;99.90
582;DHT22;277;50.074;8.436;2023-05-09T05:49:03;16.20;99.90
582;DHT22;277;50.074;8.436;2023-05-09T05:51:30;16.20;99.90
582;DHT22;277;50.074;8.436;2023-05-09T05:53:58;16.30;99.90
582;DHT22;277;50.074;8.436;2023-05-09T05:56:26;16.40;99.90
582;DHT22;277;50.074;8.436;2023-05-09T05:58:55;16.60;99.90
582;DHT22;277;50.074;8.436;2023-05-09T06:01:23;16.60;99.90
582;DHT22;277;50.074;8.436;2023-05-09T06:03:51;16.60;99.90
582;DHT22;277;50.074;8.436;2023-05-09T06:06:21;16.70;99.90
582;DHT22;277;50.074;8.436;2023-05-09T06:08:49;16.80;99.90
582;DHT22;277;50.074;8.436;2023-05-09T06:11:17;16.80;99.90
582;DHT22;277;50.074;8.436;2023-05-09T06:13:45;16.90;99.90
582;DHT22;277;50.074;8.436;2023-05-09T06:16:14;17.00;99.90
582;DHT22;277;50.074;8.436;2023-05-09T06:18:46;17.00;99.90
582;DHT22;277;50.074;8.436;2023-05-09T06:21:14;17.00;99.90
582;DHT22;277;50.074;8.436;2023-05-09T06:23:42;17.00;99.90
582;DHT22;277;50.074;8.436;2023-05-09T06:26:30;17.10;99.90
582;DHT22;277;50.074;8.436;2023-05-09T06:28:57;17.20;99.90
582;DHT22;277;50.074;8.436;2023-05-09T06:31:27;17.20;99.90
582;DHT22;277;50.074;8.436;2023-05-09T06:33:55;17.20;99.90
582;DHT22;277;50.074;8.436;2023-05-09T06:36:23;17.20;99.90
582;DHT22;277;50.074;8.436;2023-05-09T06:38:51;17.40;99.90
582;DHT22;277;50.074;8.436;2023-05-09T06:41:20;17.30;99.90
582;DHT22;277;50.074;8.436;2023-05-09T06:43:49;17.50;99.90
582;DHT22;277;50.074;8.436;2023-05-09T06:46:17;17.50;99.90
582;DHT22;277;50.074;8.436;2023-05-09T06:48:46;17.70;99.90
582;DHT22;277;50.074;8.436;2023-05-09T06:51:14;17.70;99.90
582;DHT22;277;50.074;8.436;2023-05-09T06:53:42;17.70;99.90
582;DHT22;277;50.074;8.436;2023-05-09T06:56:10;17.70;99.90
582;DHT22;277;50.074;8.436;2023-05-09T06:58:38;17.90;99.90
582;DHT22;277;50.074;8.436;2023-05-09T07:01:06;17.70;99.90
582;DHT22;277;50.074;8.436;2023-05-09T07:03:34;17.90;99.90
582;DHT22;277;50.074;8.436;2023-05-09T07:06:03;18.00;99.90
582;DHT22;277;50.074;8.436;2023-05-09T07:08:31;18.00;99.90
582;DHT22;277;50.074;8.436;2023-05-09T07:10:59;18.10;99.90
582;DHT22;277;50.074;8.436;2023-05-09T07:13:27;18.10;99.90
582;DHT22;277;50.074;8.436;2023-05-09T07:15:55;18.30;99.90
582;DHT22;277;50.074;8.436;2023-05-09T07:18:23;18.30;99.90
582;DHT22;277;50.074;8.436;2023-05-09T07:20:51;18.50;99.90
582;DHT22;277;50.074;8.436;2023-05-09T07:23:20;18.50;99.90
582;DHT22;277;50.074;8.436;2023-05-09T07:25:48;18.60;99.90
582;DHT22;277;50.074;8.436;2023-05-09T07:28:16;18.70;99.90
582;DHT22;277;50.074;8.436;2023-05-09T07:30:44;18.60;99.90
582;DHT22;277;50.074;8.436;2023-05-09T07:33:12;18.40;99.90
582;DHT22;277;50.074;8.436;2023-05-09T07:35:40;18.30;99.90
582;DHT22;277;50.074;8.436;2023-05-09T07:38:08;18.40;99.90
582;DHT22;277;50.074;8.436;2023-05-09T07:40:38;18.40;99.90
582;DHT22;277;50.074;8.436;2023-05-09T07:43:06;18.30;99.90
582;DHT22;277;50.074;8.436;2023-05-09T07:45:34;18.20;99.90
582;DHT22;277;50.074;8.436;2023-05-09T07:48:02;18.10;99.90
582;DHT22;277;50.074;8.436;2023-05-09T07:50:30;18.10;99.90
582;DHT22;277;50.074;8.436;2023-05-09T07:52:58;18.00;99.90
582;DHT22;277;50.074;8.436;2023-05-09T07:55:26;18.00;99.90
582;DHT22;277;50.074;8.436;2023-05-09T07:57:55;17.80;99.90
582;DHT22;277;50.074;8.436;2023-05-09T08:00:23;17.70;99.90
582;DHT22;277;50.074;8.436;2023-05-09T08:02:52;17.80;99.90
582;DHT22;277;50.074;8.436;2023-05-09T08:05:20;17.80;99.90
582;DHT22;277;50.074;8.436;2023-05-09T08:07:48;17.90;99.90
582;DHT22;277;50.074;8.436;2023-05-09T08:10:16;18.00;99.90
582;DHT22;277;50.074;8.436;2023-05-09T08:12:44;18.10;99.90
582;DHT22;277;50.074;8.436;2023-05-09T08:15:13;18.10;99.90
582;DHT22;277;50.074;8.436;2023-05-09T08:17:41;18.00;99.90
582;DHT22;277;50.074;8.436;2023-05-09T08:20:11;18.00;99.90
582;DHT22;277;50.074;8.436;2023-05-09T08:22:39;17.80;99.90
582;DHT22;277;50.074;8.436;2023-05-09T08:25:07;17.80;99.90
582;DHT22;277;50.074;8.436;2023-05-09T08:27:36;17.80;99.90
582;DHT22;277;50.074;8.436;2023-05-09T08:30:05;17.90;99.90
582;DHT22;277;50.074;8.436;2023-05-09T08:32:34;18.00;99.90
582;DHT22;277;50.074;8.436;2023-05-09T08:35:02;18.10;99.90
582;DHT22;277;50.074;8.436;2023-05-09T08:37:31;18.00;99.90
582;DHT22;277;50.074;8.436;2023-05-09T08:39:59;18.00;99.90
582;DHT22;277;50.074;8.436;2023-05-09T08:42:28;18.00;99.90
582;DHT22;277;50.074;8.436;2023-05-09T08:44:58;18.00;99.90
582;DHT22;277;50.074;8.436;2023-05-09T08:47:27;17.90;99.90
582;DHT22;277;50.074;8.436;2023-05-09T08:49:57;17.90;99.90
582;DHT22;277;50.074;8.436;2023-05-09T08:52:25;17.90;99.90
582;DHT22;277;50.074;8.436;2023-05-09T08:54:53;17.90;99.90
582;DHT22;277;50.074;8.436;2023-05-09T08:57:21;17.80;99.90
582;DHT22;277;50.074;8.436;2023-05-09T08:59:50;17.90;99.90
582;DHT22;277;50.074;8.436;2023-05-09T09:02:18;17.80;99.90
582;DHT22;277;50.074;8.436;2023-05-09T09:04:47;17.80;99.90
582;DHT22;277;50.074;8.436;2023-05-09T09:07:16;17.80;99.90
582;DHT22;277;50.074;8.436;2023-05-09T09:09:46;17.80;99.90
582;DHT22;277;50.074;8.436;2023-05-09T09:12:15;17.70;99.90
582;DHT22;277;50.074;8.436;2023-05-09T09:14:47;17.70;99.90
582;DHT22;277;50.074;8.436;2023-05-09T09:17:18;17.80;99.90
582;DHT22;277;50.074;8.436;2023-05-09T09:19:48;17.70;99.90
582;DHT22;277;50.074;8.436;2023-05-09T09:22:18;17.80;99.90
582;DHT22;277;50.074;8.436;2023-05-09T09:24:47;17.80;99.90
582;DHT22;277;50.074;8.436;2023-05-09T09:27:14;17.80;99.90
582;DHT22;277;50.074;8.436;2023-05-09T09:29:42;17.90;99.90
582;DHT22;277;50.074;8.436;2023-05-09T09:32:10;18.00;99.90
582;DHT22;277;50.074;8.436;2023-05-09T09:34:38;18.10;99.90
582;DHT22;277;50.074;8.436;2023-05-09T09:37:06;18.20;99.90
582;DHT22;277;50.074;8.436;2023-05-09T09:39:36;18.20;99.90
582;DHT22;277;50.074;8.436;2023-05-09T09:42:10;18.10;99.90
582;DHT22;277;50.074;8.436;2023-05-09T09:44:38;18.10;99.90
582;DHT22;277;50.074;8.436;2023-05-09T09:47:08;18.10;99.90
582;DHT22;277;50.074;8.436;2023-05-09T09:49:36;18.20;99.90
582;DHT22;277;50.074;8.436;2023-05-09T09:52:04;18.20;99.90
582;DHT22;277;50.074;8.436;2023-05-09T09:54:32;18.30;99.90
582;DHT22;277;50.074;8.436;2023-05-09T09:57:01;18.30;99.90
582;DHT22;277;50.074;8.436;2023-05-09T09:59:29;18.50;99.90
582;DHT22;277;50.074;8.436;2023-05-09T10:01:59;18.70;99.90
582;DHT22;277;50.074;8.436;2023-05-09T10:04:33;18.80;99.90
582;DHT22;277;50.074;8.436;2023-05-09T10:07:03;19.00;99.90
582;DHT22;277;50.074;8.436;2023-05-09T10:09:33;19.10;99.90
582;DHT22;277;50.074;8.436;2023-05-09T10:12:04;19.10;99.90
582;DHT22;277;50.074;8.436;2023-05-09T10:14:34;19.20;99.90
582;DHT22;277;50.074;8.436;2023-05-09T10:17:03;19.30;99.90
582;DHT22;277;50.074;8.436;2023-05-09T10:19:32;19.30;99.90
582;DHT22;277;50.074;8.436;2023-05-09T10:22:02;19.30;99.90
582;DHT22;277;50.074;8.436;2023-05-09T10:24:34;19.40;99.90
582;DHT22;277;50.074;8.436;2023-05-09T10:27:09;19.40;99.90
582;DHT22;277;50.074;8.436;2023-05-09T10:29:41;19.30;99.90
582;DHT22;277;50.074;8.436;2023-05-09T10:32:14;19.40;99.90
582;DHT22;277;50.074;8.436;2023-05-09T10:34:47;19.50;99.90
582;DHT22;277;50.074;8.436;2023-05-09T10:37:16;19.50;99.90
582;DHT22;277;50.074;8.436;2023-05-09T10:39:45;19.60;99.90
582;DHT22;277;50.074;8.436;2023-05-09T10:42:20;19.80;99.90
582;DHT22;277;50.074;8.436;2023-05-09T10:44:50;20.00;99.90
582;DHT22;277;50.074;8.436;2023-05-09T10:47:19;20.20;99.90
582;DHT22;277;50.074;8.436;2023-05-09T10:49:48;20.30;99.90
582;DHT22;277;50.074;8.436;2023-05-09T10:52:16;20.10;99.90
582;DHT22;277;50.074;8.436;2023-05-09T10:54:57;20.20;99.90
582;DHT22;277;50.074;8.436;2023-05-09T10:57:27;20.30;99.90
582;DHT22;277;50.074;8.436;2023-05-09T10:59:56;20.50;99.90
582;DHT22;277;50.074;8.436;2023-05-09T11:02:24;20.60;99.90
582;DHT22;277;50.074;8.436;2023-05-09T11:05:13;20.50;99.90
582;DHT22;277;50.074;8.436;2023-05-09T11:07:41;20.60;99.90
582;DHT22;277;50.074;8.436;2023-05-09T11:10:14;20.40;99.90
582;DHT22;277;50.074;8.436;2023-05-09T11:12:57;20.40;99.90
582;DHT22;277;50.074;8.436;2023-05-09T11:15:25;20.40;99.90
582;DHT22;277;50.074;8.436;2023-05-09T11:18:04;20.30;99.90
582;DHT22;277;50.074;8.436;2023-05-09T11:20:34;20.30;99.90
582;DHT22;277;50.074;8.436;2023-05-09T11:23:03;20.30;99.90
582;DHT22;277;50.074;8.436;2023-05-09T11:25:32;20.30;99.90
582;DHT22;277;50.074;8.436;2023-05-09T11:28:01;20.20;99.90
582;DHT22;277;50.074;8.436;2023-05-09T11:30:39;20.10;99.90
582;DHT22;277;50.074;8.436;2023-05-09T11:33:21;19.90;99.90
582;DHT22;277;50.074;8.436;2023-05-09T11:36:17;19.70;99.90
582;DHT22;277;50.074;8.436;2023-05-09T11:38:46;19.70;99.90
582;DHT22;277;50.074;8.436;2023-05-09T11:41:14;19.70;99.90
582;DHT22;277;50.074;8.436;2023-05-09T11:43:44;19.70;99.90
582;DHT22;277;50.074;8.436;2023-05-09T11:46:12;19.70;99.90
582;DHT22;277;50.074;8.436;2023-05-09T11:48:40;19.80;99.90
582;DHT22;277;50.074;8.436;2023-05-09T11:51:15;19.80;99.90
582;DHT22;277;50.074;8.436;2023-05-09T11:53:44;19.90;99.90
582;DHT22;277;50.074;8.436;2023-05-09T11:56:13;19.90;99.90
582;DHT22;277;50.074;8.436;2023-05-09T11:58:41;20.10;99.90
582;DHT22;277;50.074;8.436;2023-05-09T12:01:11;20.30;99.90
582;DHT22;277;50.074;8.436;2023-05-09T12:03:42;20.40;99.90
582;DHT22;277;50.074;8.436;2023-05-09T12:06:14;20.60;99.90
582;DHT22;277;50.074;8.436;2023-05-09T12:08:42;20.90;99.90
582;DHT22;277;50.074;8.436;2023-05-09T12:11:10;21.00;99.90
582;DHT22;277;50.074;8.436;2023-05-09T12:13:46;20.90;99.90
582;DHT22;277;50.074;8.436;2023-05-09T12:16:16;21.10;99.90
582;DHT22;277;50.074;8.436;2023-05-09T12:18:45;21.20;99.90
582;DHT22;277;50.074;8.436;2023-05-09T12:21:13;21.40;99.90
582;DHT22;277;50.074;8.436;2023-05-09T12:23:41;21.80;99.90
582;DHT22;277;50.074;8.436;2023-05-09T12:26:09;22.20;99.90
582;DHT22;277;50.074;8.436;2023-05-09T12:28:38;22.50;99.90
582;DHT22;277;50.074;8.436;2023-05-09T12:31:06;22.80;99.90
582;DHT22;277;50.074;8.436;2023-05-09T12:33:37;23.00;99.90
582;DHT22;277;50.074;8.436;2023-05-09T12:36:07;23.00;99.90
582;DHT22;277;50.074;8.436;2023-05-09T12:38:36;22.50;99.90
582;DHT22;277;50.074;8.436;2023-05-09T12:41:06;22.50;99.90
582;DHT22;277;50.074;8.436;2023-05-09T12:43:48;22.50;99.90
582;DHT22;277;50.074;8.436;2023-05-09T12:46:17;22.60;99.90
582;DHT22;277;50.074;8.436;2023-05-09T12:48:47;22.60;99.90
582;DHT22;277;50.074;8.436;2023-05-09T12:51:18;22.60;99.90
582;DHT22;277;50.074;8.436;2023-05-09T12:53:46;22.50;99.90
582;DHT22;277;50.074;8.436;2023-05-09T12:56:16;22.30;99.90
582;DHT22;277;50.074;8.436;2023-05-09T12:58:48;22.00;99.90
582;DHT22;277;50.074;8.436;2023-05-09T13:01:16;21.70;99.90
582;DHT22;277;50.074;8.436;2023-05-09T13:03:51;21.30;99.90
582;DHT22;277;50.074;8.436;2023-05-09T13:06:19;21.00;99.90
582;DHT22;277;50.074;8.436;2023-05-09T13:08:56;20.70;99.90
582;DHT22;277;50.074;8.436;2023-05-09T13:11:26;20.60;99.90
582;DHT22;277;50.074;8.436;2023-05-09T13:13:54;20.60;99.90
582;DHT22;277;50.074;8.436;2023-05-09T13:16:22;20.20;99.90
582;DHT22;277;50.074;8.436;2023-05-09T13:18:52;20.00;99.90
582;DHT22;277;50.074;8.436;2023-05-09T13:21:20;19.80;99.90
582;DHT22;277;50.074;8.436;2023-05-09T13:23:48;19.80;99.90
582;DHT22;277;50.074;8.436;2023-05-09T13:26:16;19.70;99.90
582;DHT22;277;50.074;8.436;2023-05-09T13:28:44;19.70;99.90
582;DHT22;277;50.074;8.436;2023-05-09T13:31:12;19.60;99.90
582;DHT22;277;50.074;8.436;2023-05-09T13:33:40;19.60;99.90
582;DHT22;277;50.074;8.436;2023-05-09T13:36:10;19.80;99.90
582;DHT22;277;50.074;8.436;2023-05-09T13:38:37;19.80;99.90
582;DHT22;277;50.074;8.436;2023-05-09T13:41:06;19.90;99.90
582;DHT22;277;50.074;8.436;2023-05-09T13:43:35;20.00;99.90
582;DHT22;277;50.074;8.436;2023-05-09T13:46:03;20.10;99.90
582;DHT22;277;50.074;8.436;2023-05-09T13:48:31;20.10;99.90
582;DHT22;277;50.074;8.436;2023-05-09T13:50:59;20.10;99.90
582;DHT22;277;50.074;8.436;2023-05-09T13:53:28;20.10;99.90
582;DHT22;277;50.074;8.436;2023-05-09T13:55:57;20.10;99.90
582;DHT22;277;50.074;8.436;2023-05-09T13:58:25;20.10;99.90
582;DHT22;277;50.074;8.436;2023-05-09T14:00:53;20.00;99.90
582;DHT22;277;50.074;8.436;2023-05-09T14:03:20;20.10;99.90
582;DHT22;277;50.074;8.436;2023-05-09T14:05:49;20.10;99.90
582;DHT22;277;50.074;8.436;2023-05-09T14:08:17;20.40;99.90
582;DHT22;277;50.074;8.436;2023-05-09T14:10:48;20.50;99.90
582;DHT22;277;50.074;8.436;2023-05-09T14:13:16;20.70;99.90
582;DHT22;277;50.074;8.436;2023-05-09T14:15:44;20.80;99.90
582;DHT22;277;50.074;8.436;2023-05-09T14:18:12;21.10;99.90
582;DHT22;277;50.074;8.436;2023-05-09T14:20:45;21.40;99.90
582;DHT22;277;50.074;8.436;2023-05-09T14:23:13;21.50;99.90
582;DHT22;277;50.074;8.436;2023-05-09T14:25:41;21.60;99.90
582;DHT22;277;50.074;8.436;2023-05-09T14:28:10;21.60;99.90
582;DHT22;277;50.074;8.436;2023-05-09T14:30:38;21.60;99.90
582;DHT22;277;50.074;8.436;2023-05-09T14:33:06;21.60;99.90
582;DHT22;277;50.074;8.436;2023-05-09T14:35:34;21.50;99.90
582;DHT22;277;50.074;8.436;2023-05-09T14:38:05;21.40;99.90
582;DHT22;277;50.074;8.436;2023-05-09T14:40:33;21.20;99.90
582;DHT22;277;50.074;8.436;2023-05-09T14:43:01;21.00;99.90
582;DHT22;277;50.074;8.436;2023-05-09T14:45:31;20.90;99.90
582;DHT22;277;50.074;8.436;2023-05-09T14:48:00;20.80;99.90
582;DHT22;277;50.074;8.436;2023-05-09T14:50:28;20.90;99.90
582;DHT22;277;50.074;8.436;2023-05-09T14:52:56;20.90;99.90
582;DHT22;277;50.074;8.436;2023-05-09T14:55:25;20.90;99.90
582;DHT22;277;50.074;8.436;2023-05-09T14:57:53;21.00;99.90
582;DHT22;277;50.074;8.436;2023-05-09T15:00:22;21.10;99.90
582;DHT22;277;50.074;8.436;2023-05-09T15:02:52;21.20;99.90
582;DHT22;277;50.074;8.436;2023-05-09T15:05:20;21.20;99.90
582;DHT22;277;50.074;8.436;2023-05-09T15:07:48;21.30;99.90
582;DHT22;277;50.074;8.436;2023-05-09T15:10:16;21.30;99.90
582;DHT22;277;50.074;8.436;2023-05-09T15:12:44;21.40;99.90
582;DHT22;277;50.074;8.436;2023-05-09T15:15:14;21.30;99.90
582;DHT22;277;50.074;8.436;2023-05-09T15:17:43;21.20;99.90
582;DHT22;277;50.074;8.436;2023-05-09T15:20:13;21.10;99.90
582;DHT22;277;50.074;8.436;2023-05-09T15:22:42;21.10;99.90
582;DHT22;277;50.074;8.436;2023-05-09T15:25:10;21.10;99.90
582;DHT22;277;50.074;8.436;2023-05-09T15:27:38;21.10;99.90
582;DHT22;277;50.074;8.436;2023-05-09T15:30:08;21.10;99.90
582;DHT22;277;50.074;8.436;2023-05-09T15:32:36;21.10;99.90
582;DHT22;277;50.074;8.436;2023-05-09T15:35:07;21.00;99.90
582;DHT22;277;50.074;8.436;2023-05-09T15:37:37;21.00;99.90
582;DHT22;277;50.074;8.436;2023-05-09T15:40:06;21.00;99.90
582;DHT22;277;50.074;8.436;2023-05-09T15:42:34;21.00;99.90
582;DHT22;277;50.074;8.436;2023-05-09T15:45:03;21.00;99.90
582;DHT22;277;50.074;8.436;2023-05-09T15:47:31;20.80;99.90
582;DHT22;277;50.074;8.436;2023-05-09T15:49:59;20.70;99.90
582;DHT22;277;50.074;8.436;2023-05-09T15:52:27;20.70;99.90
582;DHT22;277;50.074;8.436;2023-05-09T15:54:56;20.80;99.90
582;DHT22;277;50.074;8.436;2023-05-09T15:57:24;20.80;99.90
582;DHT22;277;50.074;8.436;2023-05-09T15:59:52;20.80;99.90
582;DHT22;277;50.074;8.436;2023-05-09T16:02:21;20.70;99.90
582;DHT22;277;50.074;8.436;2023-05-09T16:04:50;20.50;99.90
582;DHT22;277;50.074;8.436;2023-05-09T16:07:18;20.30;99.90
582;DHT22;277;50.074;8.436;2023-05-09T16:09:46;20.00;99.90
582;DHT22;277;50.074;8.436;2023-05-09T16:12:15;19.80;99.90
582;DHT22;277;50.074;8.436;2023-05-09T16:14:43;19.70;99.90
582;DHT22;277;50.074;8.436;2023-05-09T16:17:11;19.70;99.90
582;DHT22;277;50.074;8.436;2023-05-09T16:19:39;19.70;99.90
582;DHT22;277;50.074;8.436;2023-05-09T16:22:07;19.60;99.90
582;DHT22;277;50.074;8.436;2023-05-09T16:24:35;19.50;99.90
582;DHT22;277;50.074;8.436;2023-05-09T16:27:03;19.20;99.90
582;DHT22;277;50.074;8.436;2023-05-09T16:29:33;19.00;99.90
582;DHT22;277;50.074;8.436;2023-05-09T16:32:01;18.80;99.90
582;DHT22;277;50.074;8.436;2023-05-09T16:34:29;18.70;99.90
582;DHT22;277;50.074;8.436;2023-05-09T16:36:57;18.70;99.90
582;DHT22;277;50.074;8.436;2023-05-09T16:39:25;18.80;99.90
582;DHT22;277;50.074;8.436;2023-05-09T16:41:53;18.80;99.90
582;DHT22;277;50.074;8.436;2023-05-09T16:44:22;18.80;99.90
582;DHT22;277;50.074;8.436;2023-05-09T16:46:52;18.90;99.90